Time;durP1;ratioP1;P1;durP2;ratioP2;P2;SDS_P1;SDS_P2;PMS_P1;PMS_P2;Temp;Humidity;BMP_temperature;BMP_pressure;BME280_temperature;BME280_humidity;BME280_pressure;Samples;Min_cycle;Max_cycle;Signal;HPM_P1;HPM_P2
2022/04/25 00:00:53;;;;;;;7.20;4.10;;;6.50;90.90;;;;;;4937963;28;20534;-77
2022/04/25 00:03:19;;;;;;;7.07;3.50;;;6.40;90.70;;;;;;4931137;28;20122;-77
2022/04/25 00:05:45;;;;;;;9.60;4.10;;;6.40;90.90;;;;;;4944271;28;20035;-77
2022/04/25 00:08:11;;;;;;;8.85;4.70;;;6.40;91.10;;;;;;4938168;28;20043;-77
2022/04/25 00:10:37;;;;;;;9.38;3.78;;;6.40;91.10;;;;;;4945434;28;20139;-78
2022/04/25 00:13:02;;;;;;;8.95;4.38;;;6.40;91.10;;;;;;4939439;28;20086;-76
2022/04/25 00:15:28;;;;;;;10.50;4.22;;;6.40;91.40;;;;;;4943411;28;20116;-77
2022/04/25 00:17:54;;;;;;;13.15;3.75;;;6.50;91.40;;;;;;4933194;28;20134;-77
2022/04/25 00:20:20;;;;;;;10.98;4.68;;;6.50;91.30;;;;;;4947832;28;20058;-77
2022/04/25 00:22:46;;;;;;;10.73;4.40;;;6.60;91.40;;;;;;4941774;28;20027;-79
2022/04/25 00:25:12;;;;;;;12.40;4.30;;;6.70;91.40;;;;;;4951419;28;20027;-77
2022/04/25 00:27:39;;;;;;;15.63;6.13;;;6.80;91.30;;;;;;4941975;28;20039;-75
2022/04/25 00:30:05;;;;;;;9.90;4.90;;;6.70;91.10;;;;;;4945785;28;20053;-77
2022/04/25 00:32:30;;;;;;;12.02;5.18;;;6.70;91.40;;;;;;4596185;28;10000703;-77
2022/04/25 00:34:56;;;;;;;14.73;5.38;;;6.70;91.30;;;;;;4933506;28;20058;-77
2022/04/25 00:37:22;;;;;;;10.60;5.28;;;6.70;91.40;;;;;;4933096;28;20038;-77
2022/04/25 00:39:48;;;;;;;8.88;5.15;;;6.70;91.40;;;;;;4945458;28;20031;-77
2022/04/25 00:42:14;;;;;;;12.90;5.32;;;6.70;91.70;;;;;;4958831;28;20217;-77
2022/04/25 00:44:41;;;;;;;10.90;5.82;;;6.60;91.90;;;;;;4947887;28;20028;-80
2022/04/25 00:47:08;;;;;;;14.63;5.13;;;6.50;91.80;;;;;;4940883;28;20031;-76
2022/04/25 00:49:34;;;;;;;11.07;5.68;;;6.50;91.90;;;;;;4937386;28;20027;-76
2022/04/25 00:52:00;;;;;;;14.25;5.95;;;6.60;92.10;;;;;;4936436;28;20449;-78
2022/04/25 00:54:25;;;;;;;13.23;6.30;;;6.50;92.10;;;;;;4936131;28;20069;-78
2022/04/25 00:56:51;;;;;;;14.73;6.18;;;6.50;92.20;;;;;;4942252;28;20066;-77
2022/04/25 00:59:21;;;;;;;10.50;5.97;;;6.50;92.30;;;;;;4940505;28;20047;-77
2022/04/25 01:01:47;;;;;;;15.02;6.68;;;6.50;92.20;;;;;;4942954;28;20530;-77
2022/04/25 01:04:13;;;;;;;13.32;6.40;;;6.40;92.30;;;;;;4935905;28;20031;-78
2022/04/25 01:06:39;;;;;;;17.85;6.35;;;6.40;92.50;;;;;;4941967;28;20023;-78
2022/04/25 01:09:05;;;;;;;15.18;6.60;;;6.30;92.70;;;;;;4943716;28;20089;-78
2022/04/25 01:11:31;;;;;;;9.13;6.60;;;6.40;92.90;;;;;;4945538;28;20057;-78
2022/04/25 01:13:57;;;;;;;13.32;6.07;;;6.30;92.80;;;;;;4932432;28;20051;-78
2022/04/25 01:16:23;;;;;;;13.05;7.30;;;6.40;92.80;;;;;;4935041;28;20046;-77
2022/04/25 01:18:48;;;;;;;16.42;6.45;;;6.40;92.80;;;;;;4936666;28;20031;-75
2022/04/25 01:21:17;;;;;;;12.82;6.78;;;6.40;92.90;;;;;;4941949;28;20070;-75
2022/04/25 01:29:13;;;;;;;13.38;7.05;;;6.50;93.00;;;;;;4934036;28;20034;-78
2022/04/25 01:31:39;;;;;;;13.02;6.55;;;6.30;92.90;;;;;;4940187;28;20075;-79
2022/04/25 01:34:04;;;;;;;18.25;7.25;;;6.20;93.00;;;;;;4936592;28;20119;-78
2022/04/25 01:36:30;;;;;;;15.43;7.38;;;6.10;93.30;;;;;;4937893;28;20045;-78
2022/04/25 01:38:56;;;;;;;14.77;7.25;;;6.10;93.40;;;;;;4942099;28;20153;-77
2022/04/25 01:41:22;;;;;;;14.73;7.35;;;6.00;93.50;;;;;;4939127;28;20540;-79
2022/04/25 01:43:48;;;;;;;18.30;7.30;;;6.00;93.60;;;;;;4943377;28;20495;-78
2022/04/25 01:46:14;;;;;;;16.33;8.43;;;5.90;93.80;;;;;;4936090;28;20106;-78
2022/04/25 01:48:40;;;;;;;13.43;6.93;;;5.90;94.20;;;;;;4942057;28;20550;-78
2022/04/25 01:51:06;;;;;;;14.10;7.38;;;5.90;94.30;;;;;;4940630;28;20078;-78
2022/04/25 01:53:31;;;;;;;12.98;7.35;;;5.90;94.30;;;;;;4948348;28;20035;-78
2022/04/25 01:55:57;;;;;;;13.35;7.45;;;5.90;94.70;;;;;;4947134;28;20037;-79
2022/04/25 01:58:24;;;;;;;19.80;8.82;;;5.90;94.40;;;;;;4936527;28;20449;-78
2022/04/25 02:00:49;;;;;;;14.57;7.65;;;5.90;94.50;;;;;;4940868;28;20023;-77
2022/04/25 02:03:15;;;;;;;13.82;7.43;;;5.90;94.50;;;;;;4942167;28;20455;-78
2022/04/25 02:05:40;;;;;;;17.55;6.95;;;5.90;94.40;;;;;;4940520;28;20027;-78
2022/04/25 02:08:07;;;;;;;14.52;7.78;;;6.00;94.50;;;;;;4948689;28;20149;-79
2022/04/25 02:10:33;;;;;;;20.40;8.18;;;5.90;94.50;;;;;;4940573;28;20027;-79
2022/04/25 02:12:58;;;;;;;15.40;7.85;;;5.90;94.60;;;;;;4938466;28;20507;-79
2022/04/25 02:15:24;;;;;;;12.18;7.40;;;5.90;94.50;;;;;;4937416;28;20547;-79
2022/04/25 02:17:50;;;;;;;13.98;7.72;;;5.90;94.70;;;;;;4933832;28;20023;-79
2022/04/25 02:20:16;;;;;;;17.35;7.80;;;5.90;94.70;;;;;;4936621;28;20476;-79
2022/04/25 02:22:41;;;;;;;19.85;8.50;;;5.90;94.90;;;;;;4955909;28;20034;-78
2022/04/25 02:25:09;;;;;;;21.50;9.00;;;5.90;94.80;;;;;;4940194;28;20027;-78
2022/04/25 02:27:34;;;;;;;18.83;9.05;;;5.90;94.90;;;;;;4933916;28;20058;-79
2022/04/25 02:30:00;;;;;;;18.08;8.55;;;6.00;95.00;;;;;;4936145;28;20526;-78
2022/04/25 02:32:28;;;;;;;14.02;7.50;;;6.20;95.00;;;;;;4939252;28;20111;-78
2022/04/25 02:34:54;;;;;;;19.92;7.43;;;6.20;94.60;;;;;;4939381;28;20027;-77
2022/04/25 02:37:21;;;;;;;14.07;7.72;;;6.20;94.50;;;;;;4939972;28;20089;-76
2022/04/25 02:39:47;;;;;;;12.82;7.57;;;6.20;94.30;;;;;;4943344;28;20153;-77
2022/04/25 02:42:12;;;;;;;18.65;8.52;;;6.20;94.40;;;;;;4953390;28;20535;-77
2022/04/25 02:44:38;;;;;;;14.93;8.60;;;6.10;94.30;;;;;;4939925;28;20131;-78
2022/04/25 02:47:04;;;;;;;16.38;7.07;;;6.10;94.50;;;;;;4939815;28;20534;-77
2022/04/25 02:49:30;;;;;;;16.95;7.30;;;6.00;94.40;;;;;;4948489;28;20039;-77
2022/04/25 02:51:55;;;;;;;12.35;8.30;;;6.00;94.50;;;;;;4943806;28;20047;-77
2022/04/25 02:54:22;;;;;;;12.85;7.63;;;5.90;94.50;;;;;;4945456;28;20065;-77
2022/04/25 02:56:48;;;;;;;11.63;7.40;;;5.90;94.50;;;;;;4945451;28;20452;-78
2022/04/25 02:59:15;;;;;;;19.98;8.00;;;5.80;94.50;;;;;;4942639;28;20027;-77
2022/04/25 03:01:41;;;;;;;14.68;7.80;;;5.70;94.70;;;;;;4941176;28;20101;-77
2022/04/25 03:04:07;;;;;;;18.23;8.10;;;5.70;95.00;;;;;;4942600;28;20043;-77
2022/04/25 03:06:32;;;;;;;20.17;8.93;;;5.70;95.20;;;;;;4954060;28;20039;-77
2022/04/25 03:08:58;;;;;;;19.00;8.52;;;5.70;95.30;;;;;;4943948;28;20032;-77
2022/04/25 03:11:25;;;;;;;17.05;7.95;;;5.80;95.30;;;;;;4938220;28;20052;-77
2022/04/25 03:13:52;;;;;;;16.33;8.48;;;5.90;95.10;;;;;;4939069;28;20141;-77
2022/04/25 03:16:19;;;;;;;41.25;9.52;;;5.90;95.00;;;;;;4941453;29;20063;-78
2022/04/25 03:18:45;;;;;;;23.92;9.10;;;6.00;95.00;;;;;;4943057;28;20031;-77
2022/04/25 03:21:11;;;;;;;18.73;8.27;;;6.00;95.20;;;;;;4940560;28;20035;-77
2022/04/25 03:23:37;;;;;;;17.58;9.45;;;6.00;94.90;;;;;;4943785;28;20552;-77
2022/04/25 03:26:04;;;;;;;12.90;8.30;;;6.10;94.80;;;;;;4943196;29;20554;-75
2022/04/25 03:28:29;;;;;;;17.05;8.30;;;6.10;94.70;;;;;;4942858;28;20498;-80
2022/04/25 03:30:55;;;;;;;14.18;8.55;;;6.10;94.50;;;;;;4944315;28;20041;-77
2022/04/25 03:33:20;;;;;;;20.42;8.80;;;6.10;94.70;;;;;;4943951;28;20043;-79
2022/04/25 03:35:49;;;;;;;15.23;8.82;;;6.20;94.70;;;;;;4944701;28;20089;-77
2022/04/25 03:38:21;;;;;;;20.30;9.05;;;6.30;94.40;;;;;;4944518;28;20108;-78
2022/04/25 03:40:47;;;;;;;15.68;8.95;;;6.40;94.40;;;;;;4940041;28;20081;-78
2022/04/25 03:43:15;;;;;;;13.10;8.40;;;6.40;94.20;;;;;;4940292;28;20063;-78
2022/04/25 03:45:41;;;;;;;17.80;8.82;;;6.40;93.90;;;;;;4932704;29;20035;-77
2022/04/25 03:48:07;;;;;;;17.58;8.32;;;6.40;93.90;;;;;;4944916;28;20414;-76
2022/04/25 03:50:33;;;;;;;17.52;9.07;;;6.40;93.90;;;;;;4944991;28;20031;-77
2022/04/25 03:53:06;;;;;;;17.23;8.80;;;6.30;94.00;;;;;;4939837;28;20066;-77
2022/04/25 03:58:16;;;;;;;12.50;7.93;;;6.40;94.10;;;;;;4952727;28;20491;-77
2022/04/25 04:00:42;;;;;;;16.73;8.02;;;6.40;93.90;;;;;;4961240;28;20486;-77
2022/04/25 04:03:09;;;;;;;16.13;8.88;;;6.40;93.80;;;;;;4935047;28;20074;-75
2022/04/25 04:05:35;;;;;;;16.90;8.68;;;6.50;93.60;;;;;;4949333;28;20031;-76
2022/04/25 04:08:00;;;;;;;15.00;8.18;;;6.60;93.60;;;;;;4946020;28;20284;-77
2022/04/25 04:10:26;;;;;;;18.05;8.63;;;6.60;93.60;;;;;;4945185;28;20053;-77
2022/04/25 04:12:52;;;;;;;13.43;8.05;;;6.70;93.60;;;;;;4937632;28;20434;-77
2022/04/25 04:15:18;;;;;;;14.88;8.13;;;6.70;93.20;;;;;;4940927;28;20492;-77
2022/04/25 04:17:44;;;;;;;15.32;8.10;;;6.80;93.20;;;;;;4943266;28;20035;-78
2022/04/25 04:20:11;;;;;;;16.67;9.00;;;6.80;92.90;;;;;;4938765;28;20541;-78
2022/04/25 04:22:37;;;;;;;15.70;8.00;;;6.90;92.60;;;;;;4945729;28;20150;-77
2022/04/25 04:25:12;;;;;;;13.23;8.02;;;6.90;92.70;;;;;;4944070;28;20467;-76
2022/04/25 04:27:42;;;;;;;17.52;8.32;;;6.90;92.50;;;;;;4942916;28;20042;-77
2022/04/25 04:30:10;;;;;;;21.73;9.52;;;6.90;92.60;;;;;;4952507;28;20053;-79
2022/04/25 04:32:38;;;;;;;14.38;9.25;;;6.90;92.40;;;;;;4934486;28;20058;-78
2022/04/25 04:35:09;;;;;;;17.77;7.93;;;7.00;92.20;;;;;;4944881;28;20023;-77
2022/04/25 04:37:37;;;;;;;17.20;8.48;;;7.10;92.00;;;;;;4937563;28;20398;-77
2022/04/25 04:42:49;;;;;;;17.95;7.53;;;7.00;91.80;;;;;;4946531;28;20038;-78
2022/04/25 04:45:15;;;;;;;19.00;8.32;;;7.10;91.50;;;;;;4940520;28;20446;-78
2022/04/25 04:47:41;;;;;;;16.02;7.45;;;7.10;91.70;;;;;;4943704;28;20090;-78
2022/04/25 04:50:10;;;;;;;14.55;7.97;;;7.10;91.60;;;;;;4938882;28;20031;-78
2022/04/25 04:52:36;;;;;;;17.10;8.57;;;7.20;91.80;;;;;;4943090;28;20035;-78
2022/04/25 04:55:03;;;;;;;12.65;7.32;;;7.20;91.80;;;;;;4946009;28;20513;-79
2022/04/25 04:57:28;;;;;;;17.02;7.95;;;7.30;91.80;;;;;;4942203;28;20117;-78
2022/04/25 04:59:54;;;;;;;14.95;7.40;;;7.40;91.00;;;;;;4938897;28;21110;-78
2022/04/25 05:02:20;;;;;;;16.77;7.07;;;7.40;91.10;;;;;;4943011;28;20039;-78
2022/04/25 05:04:45;;;;;;;12.88;7.97;;;7.50;91.20;;;;;;4947993;28;20501;-78
2022/04/25 05:07:11;;;;;;;12.68;7.97;;;7.50;90.80;;;;;;4955240;28;20118;-77
2022/04/25 05:09:37;;;;;;;16.23;6.90;;;7.40;91.30;;;;;;4938370;28;20031;-78
2022/04/25 05:12:03;;;;;;;16.02;7.20;;;7.40;90.70;;;;;;4967981;28;20494;-80
2022/04/25 05:14:29;;;;;;;14.35;7.47;;;7.40;90.60;;;;;;4937675;28;20047;-79
2022/04/25 05:16:54;;;;;;;14.77;7.45;;;7.40;90.50;;;;;;4942908;28;20049;-78
2022/04/25 05:19:20;;;;;;;14.82;8.30;;;7.50;90.80;;;;;;4943972;28;20066;-79
2022/04/25 05:21:46;;;;;;;11.70;7.55;;;7.50;90.80;;;;;;4950249;28;20043;-76
2022/04/25 05:24:12;;;;;;;14.55;7.97;;;7.50;90.60;;;;;;4951048;28;20402;-78
2022/04/25 05:26:37;;;;;;;10.80;6.68;;;7.70;89.90;;;;;;4935368;28;20089;-78
2022/04/25 05:29:03;;;;;;;12.50;7.05;;;7.70;90.10;;;;;;4938836;28;20045;-78
2022/04/25 05:31:29;;;;;;;11.68;6.90;;;7.70;89.50;;;;;;4935374;28;20038;-78
2022/04/25 05:33:54;;;;;;;11.20;6.90;;;7.70;90.00;;;;;;4930764;28;20529;-79
2022/04/25 05:36:20;;;;;;;18.58;9.27;;;7.70;90.20;;;;;;4933641;28;20554;-76
2022/04/25 05:38:45;;;;;;;15.02;6.78;;;7.70;90.10;;;;;;4941740;28;20054;-77
2022/04/25 05:41:11;;;;;;;13.38;6.57;;;7.70;89.60;;;;;;4939184;28;20458;-78
2022/04/25 05:43:38;;;;;;;16.20;8.15;;;7.80;89.90;;;;;;4938575;28;20365;-78
2022/04/25 05:46:03;;;;;;;16.58;6.60;;;7.80;90.20;;;;;;4943087;28;20119;-75
2022/04/25 05:53:58;;;;;;;14.45;6.18;;;8.00;89.60;;;;;;4947833;28;20077;-76
2022/04/25 05:56:23;;;;;;;17.27;5.95;;;8.10;88.60;;;;;;4940115;28;20450;-76
2022/04/25 05:58:49;;;;;;;9.70;6.32;;;8.20;88.60;;;;;;4932073;28;20608;-76
2022/04/25 06:01:14;;;;;;;10.60;6.32;;;8.30;88.60;;;;;;4932603;28;20518;-77
2022/04/25 06:03:40;;;;;;;11.27;6.13;;;8.40;88.20;;;;;;4944780;28;20027;-75
2022/04/25 06:06:06;;;;;;;28.10;15.60;;;8.50;86.60;;;;;;4944048;28;20119;-76
2022/04/25 06:08:32;;;;;;;15.55;6.82;;;8.50;87.10;;;;;;4940574;28;20123;-75
2022/04/25 06:10:57;;;;;;;10.98;5.85;;;8.70;86.80;;;;;;4937090;28;20525;-76
2022/04/25 06:13:25;;;;;;;12.07;6.22;;;8.70;86.90;;;;;;4933708;28;20263;-76
2022/04/25 06:15:54;;;;;;;12.63;6.18;;;8.80;84.60;;;;;;4939682;28;20097;-75
2022/04/25 06:18:20;;;;;;;8.25;6.00;;;8.80;85.30;;;;;;4932586;28;20035;-77
2022/04/25 06:20:46;;;;;;;14.90;6.30;;;8.80;86.50;;;;;;4933144;28;20124;-75
2022/04/25 06:23:11;;;;;;;13.85;6.03;;;8.90;86.50;;;;;;4938038;28;20724;-76
2022/04/25 06:25:37;;;;;;;12.95;7.63;;;9.00;84.80;;;;;;4931140;28;20179;-77
2022/04/25 06:28:04;;;;;;;12.23;6.47;;;9.00;84.70;;;;;;4935340;28;20031;-77
2022/04/25 06:30:30;;;;;;;19.48;6.38;;;9.00;85.30;;;;;;4938728;28;20850;-77
2022/04/25 06:33:00;;;;;;;12.90;6.50;;;9.00;83.10;;;;;;4937456;28;20130;-73
2022/04/25 06:35:26;;;;;;;8.05;5.80;;;9.10;84.80;;;;;;4937407;28;20027;-77
2022/04/25 06:37:52;;;;;;;15.02;6.30;;;9.20;82.50;;;;;;4931108;28;20043;-77
2022/04/25 06:40:18;;;;;;;12.63;5.72;;;9.20;83.00;;;;;;4929128;28;20024;-77
2022/04/25 06:42:45;;;;;;;11.15;6.43;;;9.30;83.50;;;;;;4928752;28;20047;-75
2022/04/25 06:45:12;;;;;;;11.82;6.50;;;9.50;84.20;;;;;;4928843;28;20512;-77
2022/04/25 06:47:38;;;;;;;11.70;5.85;;;9.60;82.90;;;;;;4929240;28;20038;-76
2022/04/25 06:50:04;;;;;;;12.00;5.95;;;9.70;82.70;;;;;;4928693;28;20146;-75
2022/04/25 06:52:29;;;;;;;16.60;7.32;;;9.80;81.20;;;;;;4936894;28;20050;-76
2022/04/25 06:54:55;;;;;;;13.77;5.88;;;9.80;80.30;;;;;;4948603;28;20027;-77
2022/04/25 06:57:21;;;;;;;14.68;6.10;;;9.80;81.30;;;;;;4944923;28;20034;-78
2022/04/25 06:59:47;;;;;;;14.38;6.13;;;9.80;81.50;;;;;;4937608;28;20059;-77
2022/04/25 07:02:13;;;;;;;13.65;6.18;;;9.80;80.00;;;;;;4954005;28;20043;-76
2022/04/25 07:04:39;;;;;;;9.32;6.22;;;9.70;79.90;;;;;;4943958;28;20415;-78
2022/04/25 07:07:05;;;;;;;13.40;6.93;;;9.70;79.90;;;;;;4941106;28;20046;-76
2022/04/25 07:09:31;;;;;;;11.45;6.20;;;9.70;81.70;;;;;;4947628;28;20030;-77
2022/04/25 07:11:56;;;;;;;11.02;6.00;;;9.70;80.90;;;;;;4934981;28;20782;-76
2022/04/25 07:14:23;;;;;;;10.15;5.43;;;9.80;81.10;;;;;;4936294;28;20137;-78
2022/04/25 07:16:49;;;;;;;14.35;6.00;;;9.80;79.20;;;;;;4591332;28;10000086;-79
2022/04/25 07:19:15;;;;;;;13.27;5.97;;;9.80;79.50;;;;;;4932304;28;20276;-77
2022/04/25 07:29:59;;;;;;;12.07;5.75;;;10.60;77.40;;;;;;4943408;28;20061;-77
2022/04/25 07:32:25;;;;;;;11.95;6.57;;;10.80;76.70;;;;;;4924281;28;20149;-75
2022/04/25 07:34:51;;;;;;;9.00;4.30;;;11.10;75.60;;;;;;4922387;28;20020;-76
2022/04/25 07:37:18;;;;;;;9.32;4.07;;;11.40;75.30;;;;;;4928977;28;20047;-75
2022/04/25 07:39:45;;;;;;;37.80;13.27;;;11.70;72.20;;;;;;4932777;28;20040;-77
2022/04/25 07:42:11;;;;;;;13.55;4.95;;;11.90;73.30;;;;;;4926064;28;20054;-76
2022/04/25 07:44:37;;;;;;;9.90;4.70;;;12.10;72.80;;;;;;4931420;28;20072;-74
2022/04/25 07:47:04;;;;;;;9.02;4.38;;;12.30;72.20;;;;;;4929951;28;20463;-77
2022/04/25 07:49:32;;;;;;;7.28;4.03;;;12.30;69.50;;;;;;4934564;28;20047;-76
2022/04/25 07:51:59;;;;;;;7.18;4.07;;;13.20;67.80;;;;;;4934375;28;20517;-80
2022/04/25 07:54:26;;;;;;;8.30;3.60;;;14.50;65.70;;;;;;4932083;28;20027;-81
2022/04/25 07:56:51;;;;;;;8.48;3.42;;;17.40;58.30;;;;;;4934823;28;20066;-77
2022/04/25 07:59:18;;;;;;;9.50;3.60;;;17.40;51.20;;;;;;4934553;28;20126;-83
2022/04/25 08:01:44;;;;;;;5.93;3.15;;;16.30;54.40;;;;;;4939748;28;20428;-77
2022/04/25 08:04:11;;;;;;;5.05;3.45;;;14.90;57.10;;;;;;4928779;28;20027;-78
2022/04/25 08:06:38;;;;;;;5.22;3.28;;;13.70;60.90;;;;;;4935456;28;20031;-77
2022/04/25 08:09:04;;;;;;;9.25;4.05;;;13.20;62.00;;;;;;4949229;28;20027;-79
2022/04/25 08:11:30;;;;;;;10.50;3.90;;;12.70;65.80;;;;;;4940699;28;20043;-75
2022/04/25 08:19:25;;;;;;;7.15;3.25;;;17.90;53.10;;;;;;4930956;28;20495;-78
2022/04/25 08:21:52;;;;;;;8.57;3.17;;;18.20;50.20;;;;;;4930442;28;20039;-79
2022/04/25 08:24:18;;;;;;;5.35;3.00;;;20.90;45.80;;;;;;4928965;28;20043;-78
2022/04/25 08:26:44;;;;;;;6.68;3.15;;;20.10;43.20;;;;;;4929027;28;20106;-78
2022/04/25 08:29:10;;;;;;;8.80;3.30;;;19.10;46.10;;;;;;4929626;28;20035;-80
2022/04/25 08:31:37;;;;;;;6.45;3.63;;;18.00;49.70;;;;;;4928133;28;20637;-80
2022/04/25 08:34:04;;;;;;;6.72;3.10;;;16.80;51.70;;;;;;4923427;28;20538;-80
2022/04/25 08:36:31;;;;;;;6.03;3.10;;;17.20;54.10;;;;;;4938469;28;20035;-82
2022/04/25 08:38:57;;;;;;;8.43;2.65;;;16.00;53.90;;;;;;4940982;28;20458;-81
2022/04/25 08:41:30;;;;;;;9.98;3.13;;;17.80;50.30;;;;;;4938971;28;20047;-79
2022/04/25 08:43:56;;;;;;;10.82;3.40;;;17.30;48.60;;;;;;4930521;28;20039;-81
2022/04/25 08:46:22;;;;;;;5.72;3.05;;;16.60;53.80;;;;;;4937511;28;20102;-79
2022/04/25 08:48:50;;;;;;;9.35;2.90;;;19.40;49.60;;;;;;4937657;28;20045;-80
2022/04/25 08:51:15;;;;;;;5.63;2.47;;;21.80;44.50;;;;;;4935747;28;20213;-78
2022/04/25 08:53:44;;;;;;;5.05;2.67;;;24.10;40.90;;;;;;4946834;28;20039;-81
2022/04/25 08:56:12;;;;;;;7.78;2.72;;;25.60;33.80;;;;;;4929593;28;20462;-82
2022/04/25 08:58:42;;;;;;;4.32;2.58;;;26.50;33.30;;;;;;4936224;28;20674;-82
2022/04/25 09:01:10;;;;;;;6.78;2.90;;;26.90;31.40;;;;;;4940494;28;20099;-82
2022/04/25 09:03:36;;;;;;;7.50;2.40;;;28.30;29.30;;;;;;4937121;28;20097;-77
2022/04/25 09:06:03;;;;;;;6.90;3.05;;;26.00;29.40;;;;;;4930137;28;20031;-79
2022/04/25 09:08:29;;;;;;;8.30;2.75;;;23.10;33.90;;;;;;4932495;28;20037;-79
2022/04/25 09:12:09;;;;;;;10.57;3.17;;;20.70;39.80;;;;;;4935201;28;20538;-81
2022/04/25 09:13:44;;;;;;;8.73;3.05;;;19.10;44.50;;;;;;4934930;28;20147;-83
2022/04/25 09:16:12;;;;;;;6.18;2.53;;;20.40;42.10;;;;;;4948229;28;20062;-81
2022/04/25 09:18:38;;;;;;;5.95;2.53;;;20.90;42.60;;;;;;4938567;28;20114;-79
2022/04/25 09:21:07;;;;;;;3.97;2.83;;;22.60;37.80;;;;;;4944368;28;20134;-84
2022/04/25 09:23:33;;;;;;;4.95;3.17;;;23.70;36.10;;;;;;4945653;28;20100;-84
2022/04/25 09:26:28;;;;;;;4.88;2.40;;;24.50;32.90;;;;;;4939031;28;20031;-84
2022/04/25 09:28:57;;;;;;;5.85;2.38;;;25.10;32.60;;;;;;4938911;28;20027;-82
2022/04/25 09:31:25;;;;;;;4.05;2.20;;;26.10;31.00;;;;;;4942257;28;20128;-80
2022/04/25 09:33:51;;;;;;;8.30;3.10;;;26.00;31.20;;;;;;4946097;28;20023;-85
2022/04/25 09:36:17;;;;;;;6.30;2.88;;;24.00;31.50;;;;;;4942119;28;20042;-82
2022/04/25 09:38:44;;;;;;;4.97;2.70;;;22.20;36.90;;;;;;4936941;28;20023;-84
2022/04/25 09:41:14;;;;;;;3.53;2.60;;;20.80;39.30;;;;;;4941148;28;20114;-89
2022/04/25 09:43:42;;;;;;;3.58;2.40;;;21.00;38.90;;;;;;4928420;28;20603;-85
2022/04/25 09:46:17;;;;;;;6.75;2.63;;;21.40;38.40;;;;;;4927077;28;20038;-84
2022/04/25 09:49:03;;;;;;;9.20;2.83;;;21.30;39.70;;;;;;4932288;28;20482;-80
2022/04/25 09:51:29;;;;;;;9.97;2.96;;;20.90;43.00;;;;;;4590623;28;10001341;-80
2022/04/25 09:53:55;;;;;;;5.43;2.75;;;21.00;39.90;;;;;;4939068;28;20038;-81
2022/04/25 09:56:28;;;;;;;6.57;2.78;;;21.50;40.50;;;;;;4929604;28;20046;-82
2022/04/25 09:59:05;;;;;;;7.03;2.38;;;23.00;38.20;;;;;;4949451;28;20039;-81
2022/04/25 10:01:34;;;;;;;6.57;2.78;;;24.00;35.40;;;;;;4946964;28;20486;-84
2022/04/25 10:04:01;;;;;;;6.43;2.63;;;23.60;36.20;;;;;;4949799;28;20058;-88
2022/04/25 10:06:32;;;;;;;4.07;2.55;;;24.20;34.70;;;;;;4948845;28;20040;-83
2022/04/25 10:08:59;;;;;;;;;;;24.50;33.60;;;;;;4952420;28;20038;-83
2022/04/25 10:11:27;;;;;;;5.70;2.33;;;24.30;33.00;;;;;;4948588;28;19965;-82
2022/04/25 10:13:53;;;;;;;7.45;2.65;;;24.40;33.60;;;;;;4949675;28;20153;-83
2022/04/25 10:16:20;;;;;;;3.70;2.10;;;25.00;32.60;;;;;;4949737;28;20069;-86
2022/04/25 10:18:46;;;;;;;6.43;2.60;;;24.70;32.60;;;;;;4950467;28;20491;-77
2022/04/25 10:21:12;;;;;;;6.28;2.55;;;25.10;37.00;;;;;;4945828;28;20030;-82
2022/04/25 10:23:39;;;;;;;5.88;2.75;;;24.00;35.00;;;;;;4942053;28;20031;-85
2022/04/25 10:26:05;;;;;;;5.57;2.50;;;22.60;36.40;;;;;;4944573;28;20042;-84
2022/04/25 10:28:54;;;;;;;4.65;2.85;;;21.80;37.40;;;;;;4942521;28;20027;-82
2022/04/25 10:31:27;;;;;;;5.53;2.75;;;21.60;44.10;;;;;;4942914;28;20426;-87
2022/04/25 10:33:58;;;;;;;3.92;2.67;;;22.20;37.20;;;;;;4938282;28;20131;-88
2022/04/25 10:36:36;;;;;;;4.47;2.65;;;22.40;36.60;;;;;;4939910;28;20085;-80
2022/04/25 10:39:29;;;;;;;4.93;2.88;;;22.90;36.90;;;;;;4938497;28;20517;-82
2022/04/25 10:44:45;;;;;;;6.25;3.03;;;24.10;34.40;;;;;;4936275;28;20046;-78
2022/04/25 10:47:18;;;;;;;4.97;2.42;;;23.80;37.80;;;;;;4943685;28;20509;-77
2022/04/25 10:49:53;;;;;;;6.82;2.58;;;24.70;33.80;;;;;;4938854;28;20562;-81
2022/04/25 10:52:34;;;;;;;6.00;2.38;;;24.60;34.10;;;;;;4947312;28;20066;-79
2022/04/25 10:55:20;;;;;;;8.38;3.00;;;25.70;36.90;;;;;;4942484;28;20027;-78
2022/04/25 10:58:07;;;;;;;2.80;2.15;;;26.00;32.20;;;;;;4944302;28;20843;-77
2022/04/25 11:00:39;;;;;;;5.07;2.85;;;24.30;34.30;;;;;;4943842;28;20031;-80
2022/04/25 11:03:14;;;;;;;4.43;2.58;;;23.70;34.40;;;;;;4943499;28;20019;-78
2022/04/25 11:05:42;;;;;;;6.47;2.60;;;23.30;36.60;;;;;;4939566;28;20027;-79
2022/04/25 11:08:20;;;;;;;6.50;2.78;;;24.00;33.80;;;;;;4935513;28;20042;-77
2022/04/25 11:10:58;;;;;;;4.88;2.55;;;24.20;32.90;;;;;;4955517;28;20134;-80
2022/04/25 11:13:26;;;;;;;5.05;2.15;;;24.70;34.50;;;;;;4950908;28;20063;-80
2022/04/25 11:16:13;;;;;;;5.05;2.65;;;24.90;35.90;;;;;;4943963;28;20027;-85
2022/04/25 11:18:41;;;;;;;4.82;3.05;;;24.70;32.00;;;;;;4935958;28;20392;-80
2022/04/25 11:21:08;;;;;;;4.75;3.15;;;24.40;35.90;;;;;;4938733;28;20065;-77
2022/04/25 11:23:50;;;;;;;4.20;2.63;;;24.50;34.00;;;;;;4935999;28;20985;-81
2022/04/25 11:26:25;;;;;;;5.03;2.28;;;24.70;31.70;;;;;;4937212;28;20035;-78
2022/04/25 11:28:58;;;;;;;4.70;2.75;;;24.10;34.20;;;;;;4932556;28;20031;-77
2022/04/25 11:31:27;;;;;;;4.38;2.80;;;22.90;39.10;;;;;;4937426;28;20035;-78
2022/04/25 11:33:58;;;;;;;7.03;3.42;;;22.20;40.10;;;;;;4941660;28;20037;-75
2022/04/25 11:36:24;;;;;;;4.70;2.95;;;21.70;35.80;;;;;;4939498;28;20038;-80
2022/04/25 11:41:37;;;;;;;5.80;2.70;;;22.10;40.90;;;;;;4938026;28;20521;-77
2022/04/25 11:44:07;;;;;;;5.53;3.08;;;22.30;39.00;;;;;;4934798;28;20031;-82
2022/04/25 11:46:36;;;;;;;5.47;2.97;;;21.90;38.30;;;;;;4943175;28;20039;-76
2022/04/25 11:49:09;;;;;;;5.93;3.92;;;20.70;37.70;;;;;;4931332;28;20602;-77
2022/04/25 11:51:37;;;;;;;5.80;3.50;;;20.00;38.50;;;;;;4940359;28;20116;-80
2022/04/25 11:54:06;;;;;;;5.75;3.13;;;19.90;39.70;;;;;;4935308;28;20023;-78
2022/04/25 11:56:34;;;;;;;3.55;2.47;;;20.20;41.80;;;;;;4934665;28;20039;-82
2022/04/25 11:59:05;;;;;;;4.65;2.92;;;20.90;40.10;;;;;;4937858;28;20090;-79
2022/04/25 12:01:41;;;;;;;;;;;20.50;40.50;;;;;;4944215;28;20067;-81
2022/04/25 12:04:28;;;;;;;3.70;2.83;;;20.40;43.00;;;;;;4946323;28;19925;-79
2022/04/25 12:07:04;;;;;;;4.82;3.17;;;19.90;40.90;;;;;;4935854;28;20047;-79
2022/04/25 12:15:34;;;;;;;9.80;3.60;;;17.60;47.30;;;;;;4935221;28;20099;-77
2022/04/25 12:18:19;;;;;;;6.88;4.45;;;17.50;50.90;;;;;;4931424;28;20499;-82
2022/04/25 12:21:05;;;;;;;14.57;3.72;;;17.50;48.70;;;;;;4935569;28;20089;-78
2022/04/25 12:23:48;;;;;;;9.15;3.67;;;17.20;47.20;;;;;;4934699;28;20085;-77
2022/04/25 12:26:22;;;;;;;4.13;3.05;;;17.20;48.60;;;;;;4934493;28;20035;-79
2022/04/25 12:29:05;;;;;;;6.18;3.58;;;17.30;49.40;;;;;;4933148;28;20082;-79
2022/04/25 12:31:37;;;;;;;10.75;3.70;;;17.30;51.60;;;;;;4934643;28;20053;-81
2022/04/25 12:34:07;;;;;;;5.30;3.60;;;17.30;49.30;;;;;;4937677;28;20046;-77
2022/04/25 12:36:33;;;;;;;9.35;3.50;;;17.40;48.40;;;;;;4948581;28;20086;-78
2022/04/25 12:39:02;;;;;;;6.35;3.92;;;17.40;51.00;;;;;;4938840;28;20031;-79
2022/04/25 12:41:30;;;;;;;5.43;3.00;;;17.30;47.70;;;;;;4935379;28;20042;-77
2022/04/25 12:43:58;;;;;;;5.03;3.50;;;17.10;48.20;;;;;;4936536;28;20069;-79
2022/04/25 12:46:39;;;;;;;4.78;3.25;;;16.60;51.50;;;;;;4934239;28;20790;-76
2022/04/25 12:49:08;;;;;;;7.32;3.63;;;16.40;54.20;;;;;;4939960;28;20037;-73
2022/04/25 12:51:50;;;;;;;7.40;3.55;;;16.00;51.50;;;;;;4932739;28;20505;-76
2022/04/25 12:54:23;;;;;;;;;;;15.60;52.00;;;;;;4943874;28;20126;-77
2022/04/25 12:56:51;;;;;;;4.40;3.28;;;15.40;54.40;;;;;;4941524;28;19934;-75
2022/04/25 12:59:27;;;;;;;5.63;3.42;;;15.10;55.60;;;;;;4937476;28;20027;-77
2022/04/25 13:02:07;;;;;;;6.32;3.63;;;14.90;55.40;;;;;;4940771;28;20498;-77
2022/04/25 13:04:53;;;;;;;4.45;3.20;;;14.70;56.60;;;;;;4936196;28;20023;-79
2022/04/25 13:07:30;;;;;;;7.47;3.85;;;14.70;58.00;;;;;;4923774;28;20111;-76
2022/04/25 13:09:58;;;;;;;8.15;3.85;;;14.70;55.40;;;;;;4929294;28;20027;-75
2022/04/25 13:12:43;;;;;;;5.18;3.75;;;14.60;60.20;;;;;;4934510;28;20051;-76
2022/04/25 13:15:14;;;;;;;5.50;3.92;;;14.70;57.90;;;;;;4954762;28;20569;-76
2022/04/25 13:17:40;;;;;;;7.73;3.53;;;14.80;56.00;;;;;;4954598;28;20036;-76
2022/04/25 13:20:12;;;;;;;4.75;3.45;;;14.90;56.30;;;;;;4941473;28;20549;-76
2022/04/25 13:22:38;;;;;;;7.20;3.20;;;15.00;57.10;;;;;;4938625;28;20496;-77
2022/04/25 13:25:05;;;;;;;8.82;4.68;;;15.20;55.80;;;;;;4936914;28;20058;-76
2022/04/25 13:27:31;;;;;;;7.72;3.60;;;15.40;57.60;;;;;;4935896;28;20039;-78
2022/04/25 13:29:57;;;;;;;5.72;3.90;;;15.30;55.60;;;;;;4939581;28;20042;-76
2022/04/25 13:32:22;;;;;;;8.82;3.60;;;15.50;58.90;;;;;;4938611;28;20073;-76
2022/04/25 13:34:48;;;;;;;6.88;3.65;;;15.70;56.30;;;;;;4938984;28;20106;-77